createdAt,value
2022-10-18T00:01:11.728Z,14.40
2022-10-18T00:05:13.380Z,14.40
2022-10-18T00:09:15.322Z,14.40
2022-10-18T00:13:17.792Z,14.50
2022-10-18T00:17:19.502Z,14.50
2022-10-18T00:21:23.794Z,14.40
2022-10-18T00:25:25.480Z,14.40
2022-10-18T00:29:27.194Z,14.40
2022-10-18T00:33:28.859Z,14.40
2022-10-18T00:37:30.549Z,14.40
2022-10-18T00:41:33.994Z,14.40
2022-10-18T00:45:35.632Z,14.40
2022-10-18T00:49:42.025Z,14.40
2022-10-18T00:53:43.789Z,14.40
2022-10-18T00:57:45.931Z,14.40
2022-10-18T01:01:47.988Z,14.40
2022-10-18T01:05:49.900Z,14.40
2022-10-18T01:10:08.939Z,14.40
2022-10-18T01:14:36.283Z,14.40
2022-10-18T01:18:45.488Z,14.40
2022-10-18T01:22:56.916Z,14.40
2022-10-18T01:27:01.549Z,14.40
2022-10-18T01:31:17.820Z,14.40
2022-10-18T01:35:29.752Z,14.40
2022-10-18T01:39:37.194Z,14.30
2022-10-18T01:43:40.595Z,14.40
2022-10-18T01:47:47.031Z,14.30
2022-10-18T01:51:48.673Z,14.30
2022-10-18T01:56:04.536Z,14.30
2022-10-18T02:00:24.733Z,14.30
2022-10-18T02:04:46.553Z,14.30
2022-10-18T02:09:03.135Z,14.30
2022-10-18T02:13:05.183Z,14.30
2022-10-18T02:17:11.415Z,14.30
2022-10-18T02:21:17.389Z,14.40
2022-10-18T02:25:23.797Z,14.30
2022-10-18T02:29:25.711Z,14.30
2022-10-18T02:33:51.662Z,14.30
2022-10-18T02:37:54.838Z,14.30
2022-10-18T02:41:57.806Z,14.40
2022-10-18T02:45:59.939Z,14.30
2022-10-18T02:50:01.655Z,14.30
2022-10-18T02:54:03.491Z,14.30
2022-10-18T02:58:05.174Z,14.30
2022-10-18T03:02:06.836Z,14.30
2022-10-18T03:06:08.500Z,14.30
2022-10-18T03:10:10.160Z,14.30
2022-10-18T03:14:11.863Z,14.40
2022-10-18T03:18:13.661Z,14.40
2022-10-18T03:22:15.327Z,14.30
2022-10-18T03:26:16.993Z,14.40
2022-10-18T03:30:18.656Z,14.30
2022-10-18T03:34:20.307Z,14.30
2022-10-18T03:38:22.108Z,14.30
2022-10-18T03:42:23.850Z,14.30
2022-10-18T03:46:25.556Z,14.30
2022-10-18T03:50:27.248Z,14.30
2022-10-18T03:54:28.940Z,14.30
2022-10-18T03:58:30.693Z,14.30
2022-10-18T04:02:32.629Z,14.30
2022-10-18T04:06:34.576Z,14.30
2022-10-18T04:10:38.622Z,14.30
2022-10-18T04:14:40.289Z,14.30
2022-10-18T04:18:41.991Z,14.30
2022-10-18T04:22:43.654Z,14.30
2022-10-18T04:26:45.719Z,14.40
2022-10-18T04:30:53.815Z,14.30
2022-10-18T04:34:55.481Z,14.30
2022-10-18T04:38:57.160Z,14.30
2022-10-18T04:42:58.849Z,14.30
2022-10-18T04:47:00.495Z,14.30
2022-10-18T04:51:02.273Z,14.30
2022-10-18T04:55:04.097Z,14.30
2022-10-18T04:59:05.746Z,14.30
2022-10-18T05:03:08.827Z,14.30
2022-10-18T05:07:10.543Z,14.30
2022-10-18T05:11:12.290Z,14.30
2022-10-18T05:15:14.018Z,14.30
2022-10-18T05:19:15.855Z,14.40
2022-10-18T05:23:17.530Z,14.40
2022-10-18T05:27:19.198Z,14.40
2022-10-18T05:31:21.441Z,14.40
2022-10-18T05:35:23.149Z,14.40
2022-10-18T05:39:24.961Z,14.40
2022-10-18T05:43:29.698Z,14.40
2022-10-18T05:47:31.409Z,14.40
2022-10-18T05:51:33.119Z,14.40
2022-10-18T05:55:34.840Z,14.40
2022-10-18T05:59:36.507Z,14.50
2022-10-18T06:03:38.199Z,14.40
2022-10-18T06:07:39.827Z,14.40
2022-10-18T06:11:41.495Z,14.40
2022-10-18T06:15:43.135Z,14.40
2022-10-18T06:19:44.847Z,14.40
2022-10-18T06:23:50.995Z,14.40
2022-10-18T06:27:52.768Z,14.40
2022-10-18T06:31:54.433Z,14.40
2022-10-18T06:36:01.161Z,14.40
2022-10-18T06:40:02.911Z,14.40
2022-10-18T06:44:13.434Z,14.40
2022-10-18T06:48:15.410Z,14.40
2022-10-18T06:52:18.103Z,14.40
2022-10-18T06:56:19.792Z,14.50
2022-10-18T07:00:23.889Z,14.50
2022-10-18T07:04:29.256Z,14.50
2022-10-18T07:08:31.287Z,14.50
2022-10-18T07:12:33.486Z,14.50
2022-10-18T07:16:35.270Z,14.60
2022-10-18T07:20:36.961Z,14.60
2022-10-18T07:24:38.686Z,14.70
2022-10-18T07:28:40.565Z,14.70
2022-10-18T07:32:42.353Z,14.80
2022-10-18T07:36:44.016Z,14.80
2022-10-18T07:40:45.663Z,14.80
2022-10-18T07:44:47.351Z,14.90
2022-10-18T07:48:49.647Z,15.00
2022-10-18T07:52:51.300Z,15.00
2022-10-18T07:56:52.960Z,15.20
2022-10-18T08:00:54.745Z,15.10
2022-10-18T08:04:56.420Z,15.10
2022-10-18T08:08:58.103Z,15.20
2022-10-18T08:12:59.738Z,15.20
2022-10-18T08:17:01.527Z,15.20
2022-10-18T08:21:05.440Z,15.30
2022-10-18T08:25:07.666Z,15.30
2022-10-18T08:29:21.858Z,15.40
2022-10-18T08:33:25.713Z,15.40
2022-10-18T08:37:27.427Z,15.40
2022-10-18T08:41:39.321Z,15.50
2022-10-18T08:45:43.211Z,15.50
2022-10-18T08:49:58.031Z,15.60
2022-10-18T08:54:10.760Z,15.60
2022-10-18T08:58:29.524Z,15.60
2022-10-18T09:03:12.962Z,15.60
2022-10-18T09:07:39.183Z,15.60
2022-10-18T09:11:48.047Z,15.70
2022-10-18T09:15:56.672Z,15.60
2022-10-18T09:20:13.613Z,15.70
2022-10-18T09:24:27.054Z,15.60
2022-10-18T09:28:28.705Z,15.70
2022-10-18T09:32:59.390Z,15.80
2022-10-18T09:37:01.240Z,16.10
2022-10-18T09:41:27.031Z,16.00
2022-10-18T09:45:37.744Z,16.10
2022-10-18T09:49:47.380Z,16.20
2022-10-18T09:54:21.805Z,16.40
2022-10-18T09:58:27.392Z,16.30
2022-10-18T10:02:29.257Z,16.30
2022-10-18T10:06:34.514Z,16.30
2022-10-18T10:10:40.721Z,16.40
2022-10-18T10:14:45.444Z,16.60
2022-10-18T10:18:53.893Z,16.90
2022-10-18T10:23:16.315Z,17.00
2022-10-18T10:27:24.576Z,16.90
2022-10-18T10:31:31.749Z,16.80
2022-10-18T10:35:54.310Z,17.10
2022-10-18T10:40:17.749Z,17.20
2022-10-18T10:44:22.943Z,17.20
2022-10-18T10:48:29.845Z,17.00
2022-10-18T10:52:34.215Z,16.90
2022-10-18T10:56:49.895Z,16.70
2022-10-18T11:00:51.668Z,16.50
2022-10-18T11:04:55.293Z,16.40
2022-10-18T11:08:59.886Z,16.40
2022-10-18T11:13:18.461Z,16.50
2022-10-18T11:17:23.839Z,16.70
2022-10-18T11:21:31.619Z,17.10
2022-10-18T11:25:51.018Z,17.10
2022-10-18T11:30:21.142Z,17.30
2022-10-18T11:34:25.738Z,17.20
2022-10-18T11:39:05.842Z,17.20
2022-10-18T11:43:15.593Z,17.40
2022-10-18T11:47:32.122Z,17.50
2022-10-18T11:52:07.834Z,17.70
2022-10-18T11:56:16.366Z,17.90
2022-10-18T12:00:44.720Z,17.90
2022-10-18T12:05:25.319Z,17.70
2022-10-18T12:09:31.635Z,17.70
2022-10-18T12:13:36.518Z,17.70
2022-10-18T12:17:46.385Z,17.70
2022-10-18T12:21:51.831Z,17.40
2022-10-18T12:25:59.306Z,17.40
2022-10-18T12:30:11.435Z,17.30
2022-10-18T12:34:22.741Z,17.30
2022-10-18T12:38:29.295Z,17.20
2022-10-18T12:42:33.491Z,17.40
2022-10-18T12:46:44.229Z,17.30
2022-10-18T12:50:58.223Z,17.50
2022-10-18T12:55:16.965Z,17.60
2022-10-18T12:59:19.531Z,17.90
2022-10-18T13:03:37.883Z,18.10
2022-10-18T13:07:43.029Z,18.40
2022-10-18T13:11:45.038Z,18.40
2022-10-18T13:16:00.872Z,18.30
2022-10-18T13:20:26.153Z,18.00
2022-10-18T13:24:28.265Z,17.80
2022-10-18T13:29:17.856Z,17.90
2022-10-18T13:33:41.686Z,18.00
2022-10-18T13:37:57.261Z,18.20
2022-10-18T13:42:00.535Z,18.40
2022-10-18T13:46:05.227Z,18.50
2022-10-18T13:50:29.886Z,18.20
2022-10-18T13:54:44.059Z,18.40
2022-10-18T13:59:14.845Z,18.40
2022-10-18T14:03:51.235Z,18.10
2022-10-18T14:07:46.951Z,17.90
2022-10-18T14:11:53.621Z,17.80
2022-10-18T14:16:05.350Z,18.00
2022-10-18T14:20:15.473Z,18.00
2022-10-18T14:24:22.284Z,18.00
2022-10-18T14:28:36.376Z,18.00
2022-10-18T14:32:51.281Z,17.80
2022-10-18T14:36:52.879Z,17.80
2022-10-18T14:41:15.984Z,17.70
2022-10-18T14:45:20.562Z,17.50
2022-10-18T14:49:22.237Z,17.20
2022-10-18T14:53:25.113Z,17.30
2022-10-18T14:57:36.509Z,17.20
2022-10-18T15:01:39.183Z,17.00
2022-10-18T15:05:54.020Z,17.10
2022-10-18T15:09:58.004Z,17.00
2022-10-18T15:14:03.364Z,16.90
2022-10-18T15:18:06.465Z,16.80
2022-10-18T15:26:31.560Z,16.50
2022-10-18T15:30:42.781Z,16.30
2022-10-18T15:34:45.785Z,16.30
2022-10-18T15:38:49.998Z,16.10
2022-10-18T15:42:57.400Z,15.90
2022-10-18T15:47:20.167Z,15.70
2022-10-18T15:51:48.087Z,15.60
2022-10-18T15:55:52.765Z,15.40
2022-10-18T16:00:00.587Z,15.20
2022-10-18T16:04:13.782Z,14.90
2022-10-18T16:08:24.497Z,14.60
2022-10-18T16:12:26.197Z,14.40
2022-10-18T16:16:29.065Z,14.10
2022-10-18T16:20:30.795Z,13.90
2022-10-18T16:24:32.447Z,13.80
2022-10-18T16:28:34.187Z,13.60
2022-10-18T16:32:35.893Z,13.40
2022-10-18T16:36:37.769Z,13.20
2022-10-18T16:40:41.349Z,13.00
2022-10-18T16:44:43.320Z,12.90
2022-10-18T16:48:46.092Z,12.70
2022-10-18T16:52:47.767Z,12.60
2022-10-18T16:56:50.065Z,12.50
2022-10-18T17:00:52.386Z,12.30
2022-10-18T17:04:54.033Z,12.10
2022-10-18T17:08:56.827Z,12.00
2022-10-18T17:12:58.566Z,11.90
2022-10-18T17:17:00.233Z,11.80
2022-10-18T17:21:03.098Z,11.70
2022-10-18T17:25:05.132Z,11.50
2022-10-18T17:29:08.286Z,11.40
2022-10-18T17:33:11.029Z,11.30
2022-10-18T17:37:13.536Z,11.20
2022-10-18T17:41:15.179Z,11.10
2022-10-18T17:45:17.191Z,11.10
2022-10-18T17:49:18.909Z,11.00
2022-10-18T17:53:24.980Z,10.90
2022-10-18T17:57:26.747Z,10.80
2022-10-18T18:01:28.439Z,10.70
2022-10-18T18:05:32.497Z,10.60
2022-10-18T18:09:34.161Z,10.60
2022-10-18T18:13:35.871Z,10.50
2022-10-18T18:17:56.101Z,10.40
2022-10-18T18:21:59.331Z,10.30
2022-10-18T18:26:01.010Z,10.30
2022-10-18T18:30:02.707Z,10.30
2022-10-18T18:34:04.414Z,10.20
2022-10-18T18:38:06.057Z,10.10
2022-10-18T18:42:07.803Z,10.00
2022-10-18T18:46:10.169Z,10.10
2022-10-18T18:50:11.857Z,9.90
2022-10-18T18:54:14.938Z,9.80
2022-10-18T18:58:16.849Z,9.70
2022-10-18T19:02:18.515Z,9.60
2022-10-18T19:06:23.659Z,9.60
2022-10-18T19:10:25.603Z,9.60
2022-10-18T19:14:28.879Z,9.50
2022-10-18T19:18:30.559Z,9.50
2022-10-18T19:22:32.249Z,9.40
2022-10-18T19:26:45.147Z,9.30
2022-10-18T19:30:50.071Z,9.30
2022-10-18T19:34:52.776Z,9.30
2022-10-18T19:38:54.471Z,9.20
2022-10-18T19:42:56.347Z,9.10
2022-10-18T19:46:58.986Z,9.00
2022-10-18T19:51:07.012Z,9.00
2022-10-18T19:55:10.630Z,8.90
2022-10-18T19:59:15.964Z,8.90
2022-10-18T20:03:17.629Z,8.80
2022-10-18T20:07:19.342Z,8.80
2022-10-18T20:11:23.393Z,8.70
2022-10-18T20:15:25.122Z,8.60
2022-10-18T20:19:26.812Z,8.60
2022-10-18T20:23:29.405Z,8.70
2022-10-18T20:27:32.052Z,8.60
2022-10-18T20:31:38.112Z,8.50
2022-10-18T20:35:39.836Z,8.40
2022-10-18T20:39:41.496Z,8.40
2022-10-18T20:43:43.813Z,8.40
2022-10-18T20:47:45.482Z,8.40
2022-10-18T20:51:47.216Z,8.30
2022-10-18T20:55:49.795Z,8.20
2022-10-18T20:59:51.518Z,8.20
2022-10-18T21:03:55.310Z,8.10
2022-10-18T21:07:57.344Z,8.10
2022-10-18T21:11:59.027Z,8.00
2022-10-18T21:16:02.183Z,8.00
2022-10-18T21:20:04.437Z,8.00
2022-10-18T21:24:07.879Z,7.90
2022-10-18T21:28:09.709Z,7.90
2022-10-18T21:32:11.374Z,7.90
2022-10-18T21:36:14.049Z,7.90
2022-10-18T21:40:15.978Z,7.90
2022-10-18T21:44:17.968Z,7.80
2022-10-18T21:48:19.648Z,7.80
2022-10-18T21:52:21.452Z,7.80
2022-10-18T21:56:26.164Z,7.70
2022-10-18T22:00:28.287Z,7.80
2022-10-18T22:04:35.550Z,7.80
2022-10-18T22:08:37.138Z,7.80
2022-10-18T22:12:38.851Z,7.80
2022-10-18T22:16:40.591Z,7.70
2022-10-18T22:20:42.224Z,7.70
2022-10-18T22:24:43.884Z,7.60
2022-10-18T22:28:46.836Z,7.60
2022-10-18T22:32:48.537Z,7.60
2022-10-18T22:36:50.926Z,7.50
2022-10-18T22:40:52.648Z,7.50
2022-10-18T22:44:54.325Z,7.40
2022-10-18T22:48:56.079Z,7.40
2022-10-18T22:52:57.795Z,7.40
2022-10-18T22:56:59.445Z,7.30
2022-10-18T23:01:12.685Z,7.30
2022-10-18T23:05:14.363Z,7.30
2022-10-18T23:09:16.071Z,7.30
2022-10-18T23:13:17.740Z,7.30
2022-10-18T23:17:19.391Z,7.20
2022-10-18T23:21:24.105Z,7.20
2022-10-18T23:25:27.049Z,7.20
2022-10-18T23:29:28.715Z,7.20
2022-10-18T23:33:30.366Z,7.00
2022-10-18T23:37:32.990Z,7.00
2022-10-18T23:41:35.159Z,6.90
2022-10-18T23:45:36.903Z,6.90
2022-10-18T23:49:38.602Z,6.90
2022-10-18T23:53:40.333Z,6.90
2022-10-18T23:57:42.014Z,6.90
